Time;durP1;ratioP1;P1;durP2;ratioP2;P2;SDS_P1;SDS_P2;PMS_P1;PMS_P2;Temp;Humidity;BMP_temperature;BMP_pressure;BME280_temperature;BME280_humidity;BME280_pressure;Samples;Min_cycle;Max_cycle;Signal;HPM_P1;HPM_P2
2022/09/14 00:01:27;;;;;;;3.20;1.98;;;;;;;18.53;51.63;98468.53;5169161;27;20220;-66
2022/09/14 00:04:03;;;;;;;3.97;1.85;;;;;;;18.52;51.67;98469.56;5168360;27;20224;-68
2022/09/14 00:06:30;;;;;;;3.13;1.67;;;;;;;18.52;51.69;98481.09;5164272;27;20037;-68
2022/09/14 00:08:57;;;;;;;3.35;1.95;;;;;;;18.50;51.52;98472.44;5165653;27;20010;-68
2022/09/14 00:11:25;;;;;;;3.85;1.88;;;;;;;18.51;51.44;98468.72;5161272;27;20086;-66
2022/09/14 00:13:52;;;;;;;2.13;1.48;;;;;;;18.51;51.67;98467.91;5169259;27;20014;-70
2022/09/14 00:16:20;;;;;;;2.40;1.50;;;;;;;18.51;51.51;98471.41;5169439;27;20027;-69
2022/09/14 00:18:52;;;;;;;3.22;1.63;;;;;;;18.50;51.56;98464.38;5168053;27;20049;-66
2022/09/14 00:21:18;;;;;;;2.42;1.75;;;;;;;18.50;51.50;98460.91;5168397;27;20014;-66
2022/09/14 00:23:44;;;;;;;4.65;1.30;;;;;;;18.49;51.29;98457.38;5166050;27;20254;-67
2022/09/14 00:26:12;;;;;;;3.05;1.67;;;;;;;18.49;51.30;98456.56;5169399;27;20033;-70
2022/09/14 00:28:48;;;;;;;2.28;1.70;;;;;;;18.50;51.38;98452.88;5167173;27;20010;-68
2022/09/14 00:31:15;;;;;;;2.72;1.85;;;;;;;18.50;51.32;98447.50;5168581;27;20014;-68
2022/09/14 00:33:41;;;;;;;2.17;1.38;;;;;;;18.50;51.29;98453.69;5168133;27;20138;-69
2022/09/14 00:36:12;;;;;;;6.35;1.63;;;;;;;18.51;51.42;98444.63;5165885;27;20173;-66
2022/09/14 00:38:38;;;;;;;15.02;1.75;;;;;;;18.53;51.31;98439.09;5165931;27;20022;-67
2022/09/14 00:41:07;;;;;;;7.97;1.55;;;;;;;18.53;51.27;98441.75;5168480;27;20033;-69
2022/09/14 00:43:49;;;;;;;3.88;1.23;;;;;;;18.53;51.71;98439.09;5168771;27;20075;-66
2022/09/14 00:46:15;;;;;;;4.60;1.98;;;;;;;18.55;51.63;98447.72;5169137;27;20093;-65
2022/09/14 00:48:40;;;;;;;4.00;1.42;;;;;;;18.53;51.41;98444.44;5168314;27;20014;-67
2022/09/14 00:51:06;;;;;;;2.75;1.40;;;;;;;18.53;51.59;98439.09;5169033;27;20392;-68
2022/09/14 00:53:31;;;;;;;2.95;1.30;;;;;;;18.53;51.58;98436.41;5169025;27;20135;-67
2022/09/14 00:55:57;;;;;;;2.72;1.30;;;;;;;18.52;51.66;98443.59;5169127;27;20011;-66
2022/09/14 00:58:22;;;;;;;2.28;1.30;;;;;;;18.51;51.47;98431.22;5168561;27;20016;-68
2022/09/14 01:00:48;;;;;;;2.08;1.00;;;;;;;18.50;51.32;98420.72;5169083;27;20026;-67
2022/09/14 01:03:13;;;;;;;1.95;1.00;;;;;;;18.51;51.25;98425.06;5172058;27;20023;-68
2022/09/14 01:06:32;;;;;;;2.13;1.35;;;;;;;18.47;51.18;98416.56;5172883;27;20031;-67
2022/09/14 01:09:10;;;;;;;1.90;1.40;;;;;;;18.47;51.45;98427.28;5133999;27;20034;-68
2022/09/14 01:11:56;;;;;;;4.95;1.45;;;;;;;18.47;51.07;98416.56;5172558;27;20232;-69
2022/09/14 01:15:12;;;;;;;1.50;1.05;;;;;;;18.43;51.05;98418.03;5151826;27;20235;-69
2022/09/14 01:17:56;;;;;;;2.22;1.00;;;;;;;18.42;51.17;98413.69;5112929;28;20058;-68
2022/09/14 01:20:38;;;;;;;2.05;1.10;;;;;;;18.43;51.25;98421.50;5172326;27;20227;-66
2022/09/14 01:23:08;;;;;;;2.92;1.20;;;;;;;18.40;51.28;98416.53;5172270;27;20027;-65
2022/09/14 01:25:49;;;;;;;2.03;1.10;;;;;;;18.41;51.41;98418.19;5172466;27;20019;-67
2022/09/14 01:28:29;;;;;;;2.20;1.15;;;;;;;18.38;51.47;98413.22;5171652;27;20050;-67
2022/09/14 01:30:59;;;;;;;1.58;1.15;;;;;;;18.40;51.27;98418.41;5161065;27;20152;-69
2022/09/14 01:33:32;;;;;;;3.60;1.00;;;;;;;18.40;51.36;98407.69;5151485;27;20082;-66
2022/09/14 01:36:00;;;;;;;2.95;1.42;;;;;;;18.39;51.49;98408.72;5151522;27;20090;-66
2022/09/14 01:38:32;;;;;;;3.95;0.95;;;;;;;18.40;51.36;98413.06;5154800;27;20062;-68
2022/09/14 01:41:02;;;;;;;1.95;1.10;;;;;;;18.40;51.40;98402.34;5172226;27;20180;-67
2022/09/14 01:43:35;;;;;;;2.10;1.30;;;;;;;18.39;51.46;98400.69;5171705;27;20022;-68
2022/09/14 01:46:09;;;;;;;1.83;1.10;;;;;;;18.37;51.37;98400.91;5171722;27;20026;-68
2022/09/14 01:48:47;;;;;;;1.60;1.10;;;;;;;18.38;51.48;98393.69;5171730;27;20019;-67
2022/09/14 01:51:35;;;;;;;2.75;1.30;;;;;;;18.36;51.65;98393.03;5171890;27;20071;-71
2022/09/14 01:54:15;;;;;;;1.98;1.25;;;;;;;18.35;51.71;98394.06;5171454;27;20027;-70
2022/09/14 01:56:59;;;;;;;2.03;1.10;;;;;;;18.35;51.54;98386.88;5170843;27;20022;-67
2022/09/14 01:59:30;;;;;;;1.95;1.27;;;;;;;18.35;51.37;98383.34;5153790;27;20155;-64
2022/09/14 02:01:58;;;;;;;;;;;;;;;18.27;51.70;98379.00;5172024;27;20037;-66
2022/09/14 02:05:06;;;;;;;1.88;1.08;;;;;;;18.29;51.68;98384.97;5171702;27;20026;-64
2022/09/14 02:07:32;;;;;;;3.28;1.00;;;;;;;18.29;51.73;98377.78;5170900;27;20023;-67
2022/09/14 02:09:58;;;;;;;4.22;1.35;;;;;;;18.30;51.66;98376.78;5170832;27;20128;-67
2022/09/14 02:12:23;;;;;;;1.95;1.15;;;;;;;18.30;51.56;98374.09;5171136;27;20022;-66
2022/09/14 02:14:51;;;;;;;2.08;0.93;;;;;;;18.32;51.82;98371.22;5171559;27;20025;-66
2022/09/14 02:17:18;;;;;;;1.60;0.95;;;;;;;18.32;51.90;98373.03;5171031;27;20010;-65
2022/09/14 02:19:47;;;;;;;1.65;1.17;;;;;;;18.32;51.93;98378.41;5171203;27;20022;-64
2022/09/14 02:22:13;;;;;;;3.20;1.35;;;;;;;18.33;51.78;98377.38;5170148;27;20025;-68
2022/09/14 02:24:39;;;;;;;3.80;1.23;;;;;;;18.32;51.83;98371.22;5169933;27;20022;-68
2022/09/14 02:27:06;;;;;;;1.25;0.90;;;;;;;18.33;51.87;98369.34;5171200;27;20026;-66
2022/09/14 02:29:32;;;;;;;3.65;1.23;;;;;;;18.33;51.71;98363.97;5156211;27;20015;-69
2022/09/14 02:32:39;;;;;;;1.65;0.80;;;;;;;18.32;51.69;98362.31;5150430;27;20049;-69
2022/09/14 02:35:21;;;;;;;1.08;0.77;;;;;;;18.30;51.90;98374.09;5162390;27;20070;-66
2022/09/14 02:38:12;;;;;;;2.03;1.00;;;;;;;18.28;52.12;98368.09;5150224;27;20121;-66
2022/09/14 02:41:00;;;;;;;1.97;1.20;;;;;;;18.27;52.11;98366.47;5150270;27;20023;-66
2022/09/14 02:43:47;;;;;;;2.47;1.20;;;;;;;18.28;51.96;98361.91;5156129;27;20247;-68
2022/09/14 02:46:31;;;;;;;1.50;0.95;;;;;;;18.28;51.83;98365.44;5170707;27;20027;-64
2022/09/14 02:49:08;;;;;;;3.63;1.00;;;;;;;18.28;51.92;98367.25;5160711;27;20011;-68
2022/09/14 02:52:02;;;;;;;1.10;0.80;;;;;;;18.27;51.86;98350.38;5170694;27;20029;-67
2022/09/14 02:54:30;;;;;;;1.80;0.95;;;;;;;18.27;52.20;98355.75;5170653;27;20235;-65
2022/09/14 02:57:00;;;;;;;2.13;1.42;;;;;;;18.27;52.06;98354.91;5170650;27;20038;-66
2022/09/14 02:59:25;;;;;;;2.88;1.10;;;;;;;18.27;51.94;98349.53;5170004;27;20135;-67
2022/09/14 03:01:51;;;;;;;2.47;1.27;;;;;;;18.26;51.98;98348.72;5170480;27;20014;-65
2022/09/14 03:04:16;;;;;;;2.53;1.23;;;;;;;18.26;51.91;98348.72;5170066;27;20071;-64
2022/09/14 03:06:42;;;;;;;1.50;1.15;;;;;;;18.26;51.98;98346.06;5170286;27;20081;-66
2022/09/14 03:09:07;;;;;;;2.97;1.55;;;;;;;18.28;52.06;98351.19;5170271;27;20029;-66
2022/09/14 03:11:33;;;;;;;1.73;1.10;;;;;;;18.27;52.19;98342.34;5170272;27;20057;-68
2022/09/14 03:13:58;;;;;;;3.58;1.17;;;;;;;18.28;52.15;98338.66;5169884;27;20098;-67
2022/09/14 03:16:24;;;;;;;1.30;0.98;;;;;;;18.28;52.31;98340.50;5170190;27;20027;-65
2022/09/14 03:18:49;;;;;;;1.48;1.15;;;;;;;18.26;52.27;98332.66;5169635;27;20015;-68
2022/09/14 03:21:16;;;;;;;1.77;1.33;;;;;;;18.28;52.34;98337.81;5170131;27;20085;-64
2022/09/14 03:23:43;;;;;;;3.58;1.23;;;;;;;18.26;52.14;98330.00;5165893;27;20027;-66
2022/09/14 03:26:11;;;;;;;2.80;1.50;;;;;;;18.26;52.17;98338.03;5148722;27;20034;-67
2022/09/14 03:28:37;;;;;;;1.92;1.38;;;;;;;18.27;52.26;98334.31;5149162;27;20029;-68
2022/09/14 03:31:04;;;;;;;1.50;1.20;;;;;;;18.25;52.15;98333.69;5149280;27;20019;-66
2022/09/14 03:33:30;;;;;;;2.03;1.45;;;;;;;18.26;52.14;98329.16;5159788;27;20037;-65
2022/09/14 03:35:56;;;;;;;1.30;1.02;;;;;;;18.25;52.22;98328.34;5169541;27;20086;-65
2022/09/14 03:38:21;;;;;;;1.98;1.20;;;;;;;18.25;52.39;98324.81;5169805;27;20307;-66
2022/09/14 03:40:47;;;;;;;2.28;1.40;;;;;;;18.24;52.00;98326.69;5169937;27;20011;-71
2022/09/14 03:43:13;;;;;;;1.85;1.38;;;;;;;18.25;51.95;98320.31;5169083;27;20042;-69
2022/09/14 03:45:39;;;;;;;1.35;1.00;;;;;;;18.25;52.02;98322.13;5169822;27;20199;-65
2022/09/14 03:48:06;;;;;;;1.50;1.08;;;;;;;18.25;52.13;98325.66;5168589;27;20014;-68
2022/09/14 03:50:31;;;;;;;1.35;1.00;;;;;;;18.25;52.05;98320.31;5159837;27;20059;-68
2022/09/14 03:52:57;;;;;;;1.63;1.17;;;;;;;18.25;52.13;98322.13;5165054;27;20014;-68
2022/09/14 03:55:22;;;;;;;2.22;1.42;;;;;;;18.24;51.98;98332.03;5169515;27;20017;-66
2022/09/14 03:57:52;;;;;;;2.28;1.65;;;;;;;18.24;52.04;98324.00;5169633;27;20021;-65
2022/09/14 04:00:18;;;;;;;1.92;1.15;;;;;;;18.23;52.10;98322.34;5169413;27;20035;-66
2022/09/14 04:02:44;;;;;;;1.63;1.08;;;;;;;18.25;52.19;98325.66;5168576;27;20107;-65
2022/09/14 04:05:09;;;;;;;1.98;1.27;;;;;;;18.26;52.14;98323.78;5169814;27;20050;-65
2022/09/14 04:07:35;;;;;;;2.00;1.17;;;;;;;18.25;52.20;98314.94;5169205;27;20019;-66
2022/09/14 04:10:00;;;;;;;1.80;1.20;;;;;;;18.26;52.17;98315.75;5168697;27;20155;-65
2022/09/14 04:12:26;;;;;;;2.10;1.60;;;;;;;18.24;52.12;98318.66;5169310;27;20014;-65
2022/09/14 04:14:51;;;;;;;3.30;1.70;;;;;;;18.25;52.00;98319.47;5169518;27;20212;-68
2022/09/14 04:17:17;;;;;;;2.53;0.90;;;;;;;18.26;52.18;98313.94;5155101;27;20137;-68
2022/09/14 04:19:42;;;;;;;1.27;1.00;;;;;;;18.26;52.26;98319.28;5148579;28;20143;-66
2022/09/14 04:22:08;;;;;;;1.75;1.33;;;;;;;18.25;52.23;98312.28;5148620;27;20068;-65
2022/09/14 04:24:33;;;;;;;2.40;1.63;;;;;;;18.25;52.13;98314.94;5169317;27;20116;-67
2022/09/14 04:26:59;;;;;;;2.75;1.92;;;;;;;18.24;52.02;98313.31;5169089;27;20130;-66
2022/09/14 04:29:24;;;;;;;1.33;1.23;;;;;;;18.26;52.14;98308.56;5167399;27;20067;-65
2022/09/14 04:31:50;;;;;;;2.17;1.50;;;;;;;18.26;52.27;98310.41;5169066;27;20097;-68
2022/09/14 04:34:15;;;;;;;3.03;1.52;;;;;;;18.27;52.31;98307.56;5169216;27;20024;-65
2022/09/14 04:36:41;;;;;;;2.35;1.67;;;;;;;18.28;52.24;98316.38;5171604;27;20235;-67
2022/09/14 04:39:09;;;;;;;2.63;1.55;;;;;;;18.28;52.05;98311.88;5172530;27;20303;-67
2022/09/14 04:41:35;;;;;;;3.05;1.55;;;;;;;18.29;51.96;98307.34;5173369;27;20333;-68
2022/09/14 04:44:01;;;;;;;2.35;1.73;;;;;;;18.29;52.11;98301.97;5173125;27;20010;-64
2022/09/14 04:46:29;;;;;;;3.20;2.10;;;;;;;18.29;51.97;98310.84;5173178;27;20019;-63
2022/09/14 04:48:55;;;;;;;2.20;1.45;;;;;;;18.29;52.01;98315.38;5173032;27;20010;-67
2022/09/14 04:51:23;;;;;;;2.30;1.58;;;;;;;18.32;52.04;98319.47;5173042;27;20120;-67
2022/09/14 04:53:51;;;;;;;3.00;1.88;;;;;;;18.32;52.08;98319.47;5172247;27;20151;-65
2022/09/14 04:56:19;;;;;;;3.03;1.83;;;;;;;18.33;52.14;98326.50;5170283;27;20040;-68
2022/09/14 04:58:47;;;;;;;2.40;1.70;;;;;;;18.34;52.06;98318.28;5151951;27;20023;-67
2022/09/14 05:01:15;;;;;;;2.47;1.58;;;;;;;18.36;51.91;98315.38;5153207;27;20011;-67
2022/09/14 05:03:41;;;;;;;2.60;2.00;;;;;;;18.36;51.98;98318.91;5172076;27;20026;-67
2022/09/14 05:06:13;;;;;;;3.05;2.00;;;;;;;18.39;51.82;98315.00;5172843;27;20231;-66
2022/09/14 05:08:38;;;;;;;;;;;;;;;18.29;52.01;98318.88;5173081;27;20018;-66
2022/09/14 05:11:08;;;;;;;2.90;1.98;;;;;;;18.34;51.95;98317.44;5172543;27;20009;-71
2022/09/14 05:13:35;;;;;;;2.53;2.08;;;;;;;18.36;51.80;98318.91;5171721;27;20019;-67
2022/09/14 05:16:05;;;;;;;5.35;2.20;;;;;;;18.37;51.70;98331.28;5157956;27;20136;-66
2022/09/14 05:18:30;;;;;;;3.20;2.25;;;;;;;18.37;51.71;98327.75;5151947;27;20019;-65
2022/09/14 05:20:55;;;;;;;2.20;2.00;;;;;;;18.37;51.91;98339.31;5151724;27;20132;-68
2022/09/14 05:23:21;;;;;;;3.03;2.30;;;;;;;18.35;51.94;98329.81;5157511;27;20030;-66
2022/09/14 05:25:52;;;;;;;3.90;2.67;;;;;;;18.36;51.83;98328.78;5155498;27;20010;-65
2022/09/14 05:28:17;;;;;;;2.88;2.58;;;;;;;18.35;51.92;98327.13;5171839;27;20180;-65
2022/09/14 05:30:42;;;;;;;3.60;2.30;;;;;;;18.35;51.99;98325.28;5172007;27;20031;-67
2022/09/14 05:33:08;;;;;;;4.57;2.75;;;;;;;18.35;51.93;98325.28;5172199;27;20027;-69
2022/09/14 05:35:33;;;;;;;7.47;2.60;;;;;;;18.36;51.90;98315.38;5172288;27;20075;-66
2022/09/14 05:37:59;;;;;;;3.05;2.35;;;;;;;18.36;51.90;98320.75;5172227;27;20255;-65
2022/09/14 05:40:24;;;;;;;2.85;2.53;;;;;;;18.36;52.03;98316.22;5171583;27;20090;-65
2022/09/14 05:42:50;;;;;;;2.88;2.08;;;;;;;18.36;52.14;98323.41;5171279;27;20030;-66
2022/09/14 05:45:15;;;;;;;4.80;2.75;;;;;;;18.36;52.07;98318.91;5171848;27;20023;-68
2022/09/14 05:47:41;;;;;;;3.30;2.78;;;;;;;18.36;52.32;98324.25;5171205;27;20052;-66
2022/09/14 05:50:07;;;;;;;3.60;3.00;;;;;;;18.35;52.07;98327.97;5171942;27;20046;-69
2022/09/14 05:52:32;;;;;;;5.65;2.53;;;;;;;18.36;52.24;98323.41;5170607;27;20031;-68
2022/09/14 05:54:58;;;;;;;2.78;2.05;;;;;;;18.37;52.11;98323.25;5171575;27;20034;-66
2022/09/14 05:57:23;;;;;;;2.22;1.83;;;;;;;18.35;52.29;98319.94;5171977;27;20049;-68
2022/09/14 05:59:49;;;;;;;4.18;2.63;;;;;;;18.35;52.25;98319.94;5170777;27;20061;-66
2022/09/14 06:02:14;;;;;;;6.68;2.83;;;;;;;18.36;52.25;98328.78;5171280;27;20193;-66
2022/09/14 06:04:40;;;;;;;2.92;2.42;;;;;;;18.35;52.45;98324.44;5171738;27;20265;-67
2022/09/14 06:07:05;;;;;;;2.50;2.08;;;;;;;18.36;52.39;98320.75;5171616;27;20045;-65
2022/09/14 06:09:31;;;;;;;3.03;2.72;;;;;;;18.36;52.26;98318.91;5170757;27;20141;-66
2022/09/14 06:11:56;;;;;;;3.55;2.72;;;;;;;18.36;52.46;98316.22;5171614;27;20042;-66
2022/09/14 06:14:21;;;;;;;4.30;2.53;;;;;;;18.36;52.65;98316.22;5170746;27;20246;-69
2022/09/14 06:16:47;;;;;;;4.50;2.90;;;;;;;18.37;52.55;98317.03;5170944;27;20303;-67
2022/09/14 06:19:14;;;;;;;4.93;2.50;;;;;;;18.38;52.62;98318.69;5171203;27;20022;-69
2022/09/14 06:21:39;;;;;;;3.15;2.55;;;;;;;18.39;52.43;98320.34;5171004;27;20042;-66
2022/09/14 06:24:05;;;;;;;3.25;2.80;;;;;;;18.39;52.44;98320.34;5170061;27;20069;-69
2022/09/14 06:26:31;;;;;;;3.03;2.50;;;;;;;18.40;52.40;98311.28;5170654;27;20120;-67
2022/09/14 06:28:56;;;;;;;3.03;2.30;;;;;;;18.39;52.49;98315.81;5171180;27;20231;-68
2022/09/14 06:31:23;;;;;;;2.72;2.45;;;;;;;18.38;52.38;98322.19;5170932;27;20081;-67
2022/09/14 06:33:50;;;;;;;3.15;2.78;;;;;;;18.39;52.44;98315.81;5170957;27;20030;-67
2022/09/14 06:36:19;;;;;;;3.13;2.35;;;;;;;18.40;52.45;98319.31;5170928;27;20075;-68
2022/09/14 06:38:47;;;;;;;3.10;2.25;;;;;;;18.40;52.68;98319.31;5170741;27;20026;-68
2022/09/14 06:41:16;;;;;;;3.05;2.60;;;;;;;18.40;52.49;98308.59;5170959;27;20231;-71
2022/09/14 06:43:43;;;;;;;3.30;2.50;;;;;;;18.41;52.32;98310.25;5170870;27;20026;-66
2022/09/14 06:46:22;;;;;;;3.53;2.65;;;;;;;18.43;52.36;98310.88;5170891;27;20022;-69
2022/09/14 06:48:56;;;;;;;4.25;2.95;;;;;;;18.44;52.35;98305.31;5149987;27;20015;-65
2022/09/14 06:51:32;;;;;;;3.05;2.75;;;;;;;18.47;52.20;98304.06;5156053;27;20224;-66
2022/09/14 06:53:58;;;;;;;4.47;3.00;;;;;;;18.48;52.14;98310.28;5170633;27;20011;-68
2022/09/14 06:56:25;;;;;;;3.58;2.67;;;;;;;18.49;52.16;98309.25;5170723;27;20018;-68
2022/09/14 06:58:52;;;;;;;4.82;2.83;;;;;;;18.50;52.04;98306.34;5169999;27;20224;-68
2022/09/14 07:01:18;;;;;;;4.47;3.58;;;;;;;18.51;52.15;98299.97;5170076;27;20015;-65
2022/09/14 07:03:45;;;;;;;3.03;2.72;;;;;;;18.52;52.09;98300.81;5170532;27;20037;-68
2022/09/14 07:06:19;;;;;;;3.20;2.90;;;;;;;18.51;52.02;98302.66;5170375;27;20015;-68
2022/09/14 07:08:46;;;;;;;5.00;2.53;;;;;;;18.51;52.03;98296.50;5170359;27;20010;-69
2022/09/14 07:11:13;;;;;;;3.00;2.70;;;;;;;18.51;52.19;98304.53;5170379;27;20267;-66
2022/09/14 07:13:39;;;;;;;3.80;3.20;;;;;;;18.50;52.08;98300.19;5152022;27;20237;-69
2022/09/14 10:45:24;;;;;;;5.03;2.72;;;;;;;18.99;52.74;98241.91;5164443;27;20408;-63
2022/09/14 10:54:25;;;;;;;6.30;2.97;;;;;;;18.80;52.79;98259.63;5173425;27;20219;-65
2022/09/14 10:57:27;;;;;;;6.80;2.75;;;;;;;18.81;52.94;98261.28;5163296;27;20509;-63
2022/09/14 11:00:02;;;;;;;;;;;;;;;18.77;53.48;98255.50;5165299;27;20042;-62
2022/09/14 11:02:52;;;;;;;3.83;2.38;;;;;;;18.81;53.33;98254.06;5171673;27;19914;-62
2022/09/14 11:05:28;;;;;;;8.63;2.77;;;;;;;18.85;53.24;98251.78;5172383;27;20036;-62
2022/09/14 11:08:22;;;;;;;5.32;3.25;;;;;;;18.89;52.97;98256.53;5172601;27;20027;-64
2022/09/14 11:11:03;;;;;;;4.70;2.67;;;;;;;18.90;52.99;98252.81;5172108;27;20066;-63
2022/09/14 11:13:56;;;;;;;4.65;2.85;;;;;;;18.93;53.15;98256.94;5171792;27;20384;-65
2022/09/14 11:16:46;;;;;;;3.85;2.95;;;;;;;18.95;52.77;98254.09;5171411;27;20041;-62
2022/09/14 11:19:32;;;;;;;5.72;2.50;;;;;;;18.96;52.81;98245.84;5171871;27;20061;-62
2022/09/14 11:22:04;;;;;;;3.58;2.45;;;;;;;18.98;52.69;98251.00;5170095;27;20042;-62
2022/09/14 11:24:56;;;;;;;4.82;2.40;;;;;;;19.00;52.73;98248.94;5170561;27;20038;-63
2022/09/14 11:27:53;;;;;;;5.90;2.42;;;;;;;19.04;52.57;98248.31;5162104;27;20098;-64
2022/09/14 11:30:22;;;;;;;3.45;2.33;;;;;;;19.03;52.54;98245.84;5143062;27;20095;-63
2022/09/14 11:32:50;;;;;;;4.25;2.58;;;;;;;19.05;52.41;98249.97;5169317;27;20038;-62
2022/09/14 11:35:43;;;;;;;6.22;3.20;;;;;;;19.04;52.44;98247.50;5171050;27;20066;-63
2022/09/14 11:38:19;;;;;;;3.33;2.60;;;;;;;19.04;52.33;98248.31;5171346;27;20508;-63
2022/09/14 11:41:09;;;;;;;4.03;2.33;;;;;;;19.06;52.46;98248.94;5171521;27;20133;-65
2022/09/14 11:43:51;;;;;;;6.43;2.85;;;;;;;19.07;52.32;98247.06;5171645;27;20399;-65
2022/09/14 11:46:26;;;;;;;2.97;2.20;;;;;;;19.07;52.39;98244.38;5171160;27;20073;-62
2022/09/14 11:49:49;;;;;;;2.92;2.25;;;;;;;19.06;52.42;98243.56;5170905;27;20038;-63
2022/09/14 11:52:26;;;;;;;4.07;2.30;;;;;;;19.05;52.53;98233.88;5086597;28;20139;-64
2022/09/14 11:54:53;;;;;;;2.70;2.38;;;;;;;19.05;52.25;98243.75;5087144;28;20043;-65
2022/09/14 11:57:24;;;;;;;4.40;2.50;;;;;;;19.07;52.53;98239.00;5132669;27;20038;-65
2022/09/14 11:59:51;;;;;;;;;;;;;;;19.00;52.63;98244.38;5170029;27;20030;-64
2022/09/14 12:02:22;;;;;;;4.18;2.63;;;;;;;19.05;52.35;98243.75;5170480;27;19968;-62
2022/09/14 12:05:03;;;;;;;5.78;3.53;;;;;;;19.05;52.35;98246.44;5159460;27;20035;-63
2022/09/14 12:07:41;;;;;;;6.63;5.20;;;;;;;19.04;52.28;98236.78;5157166;27;20079;-65
2022/09/14 12:10:12;;;;;;;4.13;2.85;;;;;;;19.02;52.21;98236.16;5156675;27;20437;-64
2022/09/14 12:12:43;;;;;;;6.35;3.45;;;;;;;19.02;52.23;98236.97;5156570;27;20121;-64
2022/09/14 12:15:24;;;;;;;4.22;2.92;;;;;;;19.02;52.31;98233.47;5156397;27;20041;-65
2022/09/14 12:18:12;;;;;;;3.33;2.30;;;;;;;19.02;52.17;98233.47;5157124;27;20031;-65
2022/09/14 12:20:42;;;;;;;5.32;2.88;;;;;;;19.01;52.22;98238.00;5157031;27;20023;-65
2022/09/14 12:23:50;;;;;;;3.67;2.40;;;;;;;19.02;52.08;98230.78;5144881;27;20507;-65
2022/09/14 12:26:21;;;;;;;5.57;3.03;;;;;;;19.00;52.22;98227.50;5113185;27;20048;-65
2022/09/14 12:28:48;;;;;;;;;;;;;;;18.95;52.25;98227.28;5157602;27;20030;-64
2022/09/14 12:31:35;;;;;;;3.55;2.25;;;;;;;18.97;52.19;98233.25;5156638;27;20009;-64
2022/09/14 12:34:05;;;;;;;5.30;2.33;;;;;;;18.99;52.17;98229.34;5156053;27;20505;-66
2022/09/14 12:36:36;;;;;;;4.03;2.63;;;;;;;18.99;51.98;98221.28;5156721;27;20045;-63
2022/09/14 12:39:18;;;;;;;5.05;2.63;;;;;;;19.01;52.05;98221.91;5156683;27;20030;-64
2022/09/14 12:41:47;;;;;;;4.05;2.60;;;;;;;19.01;52.00;98223.78;5156631;27;20062;-63
2022/09/14 12:44:27;;;;;;;3.67;2.33;;;;;;;19.05;51.83;98225.00;5155458;27;20075;-65
2022/09/14 12:46:53;;;;;;;4.68;2.85;;;;;;;19.02;51.99;98226.25;5155230;27;20031;-65
2022/09/14 12:49:30;;;;;;;4.70;2.83;;;;;;;19.04;51.72;98229.53;5156386;27;20381;-64
2022/09/14 12:52:02;;;;;;;7.07;4.85;;;;;;;19.06;51.75;98219.44;5155485;27;20051;-64
2022/09/14 12:54:56;;;;;;;7.07;3.80;;;;;;;19.09;51.85;98222.75;5156106;27;20023;-63
2022/09/14 12:57:38;;;;;;;5.38;3.70;;;;;;;19.08;51.71;98221.91;5156419;27;20485;-65
2022/09/14 13:00:14;;;;;;;5.80;3.17;;;;;;;19.09;51.92;98222.75;5135807;27;20078;-65
2022/09/14 13:02:58;;;;;;;3.65;2.83;;;;;;;19.09;51.90;98223.56;5135634;27;20381;-64
2022/09/14 13:05:26;;;;;;;7.10;2.85;;;;;;;19.09;51.92;98217.38;5135607;27;20114;-62
2022/09/14 13:07:53;;;;;;;4.07;2.88;;;;;;;19.12;51.81;98224.97;5135564;27;20035;-63
2022/09/14 13:10:33;;;;;;;3.97;2.28;;;;;;;19.13;51.69;98223.94;5154195;27;20038;-63
2022/09/14 13:13:01;;;;;;;4.40;2.55;;;;;;;19.12;51.58;98208.91;5134887;27;20438;-64
2022/09/14 13:15:43;;;;;;;4.03;2.60;;;;;;;19.13;51.61;98214.06;5134370;27;20031;-65
2022/09/14 13:18:18;;;;;;;7.97;2.50;;;;;;;19.12;51.79;98217.78;5135199;27;20401;-62
2022/09/14 13:20:52;;;;;;;3.08;2.20;;;;;;;19.14;51.68;98218.41;5154968;27;20039;-64
2022/09/14 13:23:21;;;;;;;4.28;2.33;;;;;;;19.13;51.40;98211.38;5155764;27;20173;-65
2022/09/14 13:25:46;;;;;;;3.00;2.38;;;;;;;19.14;51.65;98218.41;5155925;27;20065;-63
2022/09/14 13:28:17;;;;;;;5.18;2.50;;;;;;;19.15;51.45;98211.16;5154919;27;20071;-64
2022/09/14 13:30:53;;;;;;;4.43;2.85;;;;;;;19.13;51.75;98211.38;5146363;27;20035;-63
2022/09/14 13:33:18;;;;;;;6.32;3.30;;;;;;;19.13;51.81;98205.19;5153518;27;20042;-65
2022/09/14 13:35:50;;;;;;;6.03;2.80;;;;;;;19.14;51.52;98209.50;5155416;27;20030;-62
2022/09/14 13:38:19;;;;;;;4.05;2.63;;;;;;;19.13;51.68;98202.50;5155236;27;20373;-65
2022/09/14 13:40:48;;;;;;;3.28;2.25;;;;;;;19.14;51.50;98194.28;5155342;27;20042;-63
2022/09/14 13:43:16;;;;;;;5.30;3.00;;;;;;;19.14;51.52;98196.94;5154969;27;20385;-62
2022/09/14 13:45:41;;;;;;;3.53;2.22;;;;;;;19.14;51.47;98196.94;5155356;27;20374;-63
2022/09/14 13:48:07;;;;;;;4.95;3.15;;;;;;;19.13;51.65;98192.63;5155062;27;20035;-64
2022/09/14 13:50:33;;;;;;;4.45;2.60;;;;;;;19.15;51.47;98200.44;5155600;27;20054;-62
2022/09/14 13:52:59;;;;;;;5.05;2.53;;;;;;;19.14;51.51;98194.28;5154205;27;20579;-64
2022/09/14 13:55:26;;;;;;;4.88;2.50;;;;;;;19.14;51.53;98199.63;5154971;27;20109;-65
2022/09/14 13:58:10;;;;;;;2.95;2.22;;;;;;;19.13;51.50;98199.81;5155190;27;20027;-64
2022/09/14 14:00:54;;;;;;;3.15;2.35;;;;;;;19.12;51.49;98196.34;5145314;27;20019;-65
2022/09/14 14:03:39;;;;;;;3.38;2.40;;;;;;;19.11;51.71;98200.03;5134319;27;20033;-65
2022/09/14 14:06:28;;;;;;;3.10;2.38;;;;;;;19.09;51.74;98190.56;5133967;27;20038;-64
2022/09/14 14:09:08;;;;;;;4.05;2.88;;;;;;;19.09;51.50;98204.78;5148580;27;20035;-65
2022/09/14 14:11:35;;;;;;;4.10;2.28;;;;;;;19.08;51.47;98207.69;5154343;27;20459;-63
2022/09/14 14:14:15;;;;;;;3.15;2.83;;;;;;;19.09;51.49;98201.28;5154871;27;20078;-66
2022/09/14 14:17:00;;;;;;;4.70;2.87;;;;;;;19.08;51.61;98199.66;5155048;27;20043;-65
2022/09/14 14:19:29;;;;;;;4.85;2.85;;;;;;;19.07;51.41;98209.53;5153990;27;20027;-64
2022/09/14 14:22:19;;;;;;;4.18;2.38;;;;;;;19.08;51.56;98213.06;5154436;27;20030;-64
2022/09/14 14:24:49;;;;;;;3.30;2.22;;;;;;;19.04;51.40;98212.66;5142864;27;20137;-63
2022/09/14 14:27:36;;;;;;;4.43;2.45;;;;;;;19.04;51.33;98204.59;5154510;27;20045;-63
2022/09/14 14:30:15;;;;;;;5.18;2.55;;;;;;;19.04;51.14;98193.88;5151419;27;20090;-62
2022/09/14 14:32:41;;;;;;;3.90;2.60;;;;;;;19.04;51.38;98204.59;5154683;27;20043;-65
2022/09/14 14:35:14;;;;;;;4.15;2.70;;;;;;;19.05;51.18;98212.44;5154688;27;20039;-63
2022/09/14 14:37:40;;;;;;;5.05;2.60;;;;;;;19.05;51.33;98216.94;5154068;27;20039;-64
2022/09/14 14:40:06;;;;;;;3.70;2.58;;;;;;;19.06;51.09;98210.56;5154418;27;20030;-66
2022/09/14 14:42:31;;;;;;;4.97;2.83;;;;;;;19.05;51.13;98203.53;5154194;27;20029;-63
2022/09/14 14:44:57;;;;;;;6.88;2.78;;;;;;;19.05;51.25;98212.44;5154613;27;20035;-63
2022/09/14 14:47:22;;;;;;;3.83;2.70;;;;;;;19.04;50.97;98208.09;5154452;27;20037;-63
2022/09/14 14:49:48;;;;;;;4.93;2.90;;;;;;;19.04;51.19;98208.09;5153995;27;20495;-65
2022/09/14 14:52:13;;;;;;;5.63;3.13;;;;;;;19.05;51.21;98195.50;5154098;27;20050;-63
2022/09/14 14:54:41;;;;;;;8.98;3.50;;;;;;;19.06;51.38;98205.19;5154478;27;20489;-63
2022/09/14 14:57:08;;;;;;;7.05;3.33;;;;;;;19.04;51.17;98197.38;5153450;27;20064;-65
2022/09/14 14:59:34;;;;;;;9.13;4.00;;;;;;;19.04;51.67;98194.69;5153428;27;20058;-64
2022/09/14 15:02:00;;;;;;;6.65;3.83;;;;;;;19.04;51.45;98196.56;5153816;27;20473;-65
2022/09/14 15:04:25;;;;;;;7.80;4.65;;;;;;;19.03;52.16;98194.91;5154005;27;20038;-64
2022/09/14 15:06:51;;;;;;;10.75;6.07;;;;;;;19.05;52.61;98199.03;5153297;27;20035;-64
2022/09/14 15:09:24;;;;;;;8.48;5.22;;;;;;;19.07;52.98;98190.75;5153856;27;20029;-64
2022/09/14 15:11:52;;;;;;;10.63;5.70;;;;;;;19.06;53.39;98191.78;5153898;27;20027;-64
2022/09/14 15:14:19;;;;;;;11.93;6.35;;;;;;;19.06;53.69;98192.63;5153899;27;20054;-63
2022/09/14 15:16:45;;;;;;;12.65;6.28;;;;;;;19.06;53.72;98189.94;5153646;27;20981;-63
2022/09/14 15:19:10;;;;;;;11.45;7.07;;;;;;;19.06;54.27;98191.78;5154040;27;20034;-63
2022/09/14 15:21:37;;;;;;;11.95;6.82;;;;;;;19.09;54.27;98199.41;5154193;27;20504;-65
2022/09/14 15:24:03;;;;;;;13.40;7.72;;;;;;;19.09;54.80;98202.09;5154007;27;20397;-65
2022/09/14 15:26:28;;;;;;;12.65;6.57;;;;;;;19.10;54.85;98197.59;5154418;27;20430;-64
2022/09/14 15:28:54;;;;;;;12.88;8.40;;;;;;;19.11;54.96;98199.22;5152847;27;20043;-62
2022/09/14 15:31:20;;;;;;;13.07;7.15;;;;;;;19.10;55.38;98193.03;5154175;27;20403;-65